Time;durP1;ratioP1;P1;durP2;ratioP2;P2;SDS_P1;SDS_P2;PMS_P1;PMS_P2;Temp;Humidity;BMP_temperature;BMP_pressure;BME280_temperature;BME280_humidity;BME280_pressure;Samples;Min_cycle;Max_cycle;Signal;HPM_P1;HPM_P2
2021/11/20 00:01:13;;;;;;;47.75;33.60;;;;;;;10.17;91.85;102358.66;5030428;28;20461;-66
2021/11/20 00:03:44;;;;;;;51.97;34.28;;;;;;;10.15;92.26;102361.38;5028775;28;20084;-67
2021/11/20 00:06:11;;;;;;;55.08;35.30;;;;;;;10.07;92.66;102366.34;5030455;28;20504;-67
2021/11/20 00:08:39;;;;;;;56.53;35.90;;;;;;;10.09;92.83;102359.22;5030331;28;20544;-67
2021/11/20 00:11:08;;;;;;;57.67;35.90;;;;;;;10.17;92.65;102353.44;5028193;28;20135;-67
2021/11/20 00:13:36;;;;;;;56.88;37.55;;;;;;;10.12;92.53;102353.75;5030705;28;20394;-66
2021/11/20 00:16:05;;;;;;;56.42;35.78;;;;;;;10.12;92.48;102353.75;5030277;28;20092;-65
2021/11/20 00:18:34;;;;;;;51.65;36.15;;;;;;;10.15;92.19;102348.31;5029989;28;20053;-66
2021/11/20 00:21:14;;;;;;;57.78;37.35;;;;;;;10.15;92.48;102340.47;5030267;28;20083;-66
2021/11/20 00:23:44;;;;;;;59.95;37.60;;;;;;;10.10;92.82;102347.81;5030054;28;20135;-66
2021/11/20 00:26:14;;;;;;;58.30;38.15;;;;;;;10.03;93.09;102348.34;5030151;28;20492;-66
2021/11/20 00:29:05;;;;;;;59.42;38.53;;;;;;;10.14;92.65;102348.41;5029713;28;20045;-67
2021/11/20 00:31:35;;;;;;;58.60;37.58;;;;;;;10.06;93.07;102335.91;5028303;28;20464;-67
2021/11/20 00:34:02;;;;;;;57.85;37.28;;;;;;;10.09;92.89;102350.53;5029821;28;20100;-67
2021/11/20 00:36:29;;;;;;;54.72;36.53;;;;;;;10.05;92.91;102339.47;5029382;28;20103;-66
2021/11/20 00:38:58;;;;;;;58.72;38.13;;;;;;;10.11;92.43;102340.78;5028948;28;20099;-66
2021/11/20 00:41:28;;;;;;;59.10;37.63;;;;;;;10.11;92.48;102339.00;5030281;28;20422;-66
2021/11/20 00:43:55;;;;;;;58.25;37.92;;;;;;;10.09;92.88;102346.13;5030072;28;20481;-66
2021/11/20 00:46:30;;;;;;;60.10;38.83;;;;;;;10.11;92.44;102343.41;5030237;28;20061;-66
2021/11/20 00:48:58;;;;;;;62.63;39.75;;;;;;;10.03;92.84;102337.91;5029810;28;20137;-66
2021/11/20 00:51:27;;;;;;;59.03;38.33;;;;;;;10.09;92.25;102340.91;5030150;28;20053;-66
2021/11/20 00:53:54;;;;;;;58.28;38.03;;;;;;;10.09;92.30;102343.53;5030161;28;20107;-66
2021/11/20 00:56:25;;;;;;;61.03;39.97;;;;;;;10.11;92.34;102341.63;5030046;28;20049;-67
2021/11/20 00:58:53;;;;;;;67.35;40.28;;;;;;;10.09;92.66;102335.69;5030427;28;20105;-66
2021/11/20 01:01:22;;;;;;;60.42;39.70;;;;;;;10.07;92.51;102334.94;5029983;28;20088;-66
2021/11/20 01:03:49;;;;;;;62.85;39.20;;;;;;;10.10;92.13;102336.50;5030626;28;20085;-67
2021/11/20 01:06:16;;;;;;;63.53;39.75;;;;;;;10.02;92.77;102344.91;5030109;28;20050;-67
2021/11/20 01:08:46;;;;;;;62.15;40.10;;;;;;;10.06;92.51;102338.50;5029962;28;20089;-67
2021/11/20 01:11:17;;;;;;;59.47;38.10;;;;;;;10.23;92.22;102335.53;5030111;28;20256;-68
2021/11/20 01:13:46;;;;;;;59.72;38.08;;;;;;;10.09;92.46;102335.69;5030234;28;20136;-67
2021/11/20 01:16:14;;;;;;;59.17;37.85;;;;;;;10.03;92.64;102324.81;5030229;28;20060;-67
2021/11/20 01:18:42;;;;;;;57.13;37.00;;;;;;;10.03;92.96;102324.81;5030054;28;20132;-67
2021/11/20 01:21:10;;;;;;;58.80;38.25;;;;;;;10.09;92.51;102329.59;5030553;28;20119;-67
2021/11/20 01:23:37;;;;;;;59.28;38.58;;;;;;;10.08;92.35;102327.94;5030279;28;20046;-69
2021/11/20 01:26:05;;;;;;;63.95;39.45;;;;;;;10.00;92.89;102320.66;5030105;28;20076;-68
2021/11/20 01:28:34;;;;;;;64.82;39.50;;;;;;;10.01;92.88;102322.31;5029531;28;20081;-67
2021/11/20 01:31:04;;;;;;;58.08;37.92;;;;;;;9.96;92.74;102320.03;5030482;28;20397;-67
2021/11/20 01:33:31;;;;;;;62.42;39.33;;;;;;;9.98;92.56;102320.75;5030691;28;20045;-68
2021/11/20 01:35:59;;;;;;;58.50;37.45;;;;;;;9.97;92.86;102320.88;5030103;28;20149;-68
2021/11/20 01:38:26;;;;;;;61.28;36.53;;;;;;;10.08;92.38;102317.47;5030056;28;20050;-67
2021/11/20 01:40:53;;;;;;;59.38;38.75;;;;;;;10.06;92.14;102314.97;5029903;28;20053;-67
2021/11/20 01:43:21;;;;;;;63.90;39.65;;;;;;;9.99;92.71;102306.72;5029956;28;20100;-67
2021/11/20 01:45:53;;;;;;;61.17;37.47;;;;;;;9.99;92.51;102309.34;5030081;28;20049;-67
2021/11/20 01:48:51;;;;;;;60.65;37.83;;;;;;;9.94;92.57;102300.16;5029733;28;20077;-67
2021/11/20 01:51:24;;;;;;;61.83;38.58;;;;;;;9.93;92.44;102295.88;5033533;28;20394;-68
2021/11/20 01:54:09;;;;;;;62.35;37.80;;;;;;;10.01;92.37;102297.94;5033809;28;20081;-68
2021/11/20 01:56:41;;;;;;;58.60;37.33;;;;;;;10.06;92.57;102295.81;5033605;28;20122;-68
2021/11/20 01:59:24;;;;;;;60.83;36.70;;;;;;;9.98;92.40;102286.75;5033549;28;20071;-67
2021/11/20 02:01:54;;;;;;;58.42;38.20;;;;;;;9.91;92.96;102295.19;5033114;28;20046;-68
2021/11/20 02:04:27;;;;;;;58.13;37.72;;;;;;;9.92;92.83;102289.00;5033458;28;20107;-68
2021/11/20 02:07:07;;;;;;;63.58;37.22;;;;;;;9.87;93.25;102289.34;5033119;28;20107;-68
2021/11/20 02:09:38;;;;;;;62.65;37.92;;;;;;;9.85;93.18;102282.56;5032368;28;20081;-68
2021/11/20 02:12:09;;;;;;;56.22;36.03;;;;;;;9.84;93.27;102279.09;5033078;28;20054;-68
2021/11/20 02:19:17;;;;;;;;;;;;;;;;;;;;;
2021/11/20 02:27:22;;;;;;;59.88;37.58;;;;;;;9.76;93.69;102259.69;5021926;23;20379;-68
2021/11/20 02:29:49;;;;;;;65.32;36.55;;;;;;;9.76;93.44;102259.69;5025558;28;20085;-69
2021/11/20 02:32:19;;;;;;;63.88;38.50;;;;;;;9.77;93.97;102250.91;5034555;28;20083;-67
2021/11/20 02:34:49;;;;;;;56.58;36.03;;;;;;;9.73;93.46;102250.28;5033937;28;20060;-68
2021/11/20 02:37:17;;;;;;;59.88;37.28;;;;;;;9.71;93.60;102254.78;5024477;28;20544;-68
2021/11/20 02:39:45;;;;;;;65.53;38.13;;;;;;;9.71;93.54;102252.16;5013954;28;20054;-70
2021/11/20 02:42:14;;;;;;;60.17;37.17;;;;;;;9.81;93.21;102255.78;5014056;28;20093;-69
2021/11/20 02:44:41;;;;;;;59.28;35.90;;;;;;;9.75;93.54;102255.41;5013993;28;20510;-69
2021/11/20 02:47:23;;;;;;;57.90;35.70;;;;;;;9.74;93.57;102256.34;5013263;28;20082;-70
2021/11/20 02:49:51;;;;;;;56.33;34.95;;;;;;;9.73;93.72;102260.75;5012952;28;20082;-70
2021/11/20 02:52:19;;;;;;;61.88;35.88;;;;;;;9.72;93.51;102245.16;5012916;28;20060;-71
2021/11/20 02:54:48;;;;;;;59.47;35.75;;;;;;;9.72;93.77;102247.78;5013798;28;20079;-68
2021/11/20 02:57:18;;;;;;;58.40;34.75;;;;;;;9.70;93.58;102242.66;5013377;28;20492;-69
2021/11/20 02:59:44;;;;;;;59.88;35.38;;;;;;;9.70;93.78;102244.44;5013124;28;20069;-69
2021/11/20 03:02:13;;;;;;;57.03;35.70;;;;;;;9.81;93.34;102234.03;5012487;28;20081;-69
2021/11/20 03:04:42;;;;;;;56.85;35.42;;;;;;;9.74;93.52;102238.88;5013090;28;20518;-69
2021/11/20 03:07:09;;;;;;;53.97;35.35;;;;;;;9.72;93.66;102238.16;5013170;28;20129;-68
2021/11/20 03:09:38;;;;;;;63.13;36.72;;;;;;;9.69;93.45;102234.94;5012894;28;20141;-69
2021/11/20 03:12:10;;;;;;;57.33;34.83;;;;;;;9.63;93.86;102231.81;5013004;28;20053;-70
2021/11/20 03:14:38;;;;;;;58.13;34.70;;;;;;;9.64;93.82;102224.81;5012861;28;20081;-70
2021/11/20 03:17:07;;;;;;;56.50;36.38;;;;;;;9.68;93.62;102235.88;5012842;28;20097;-69
2021/11/20 03:19:36;;;;;;;54.72;34.45;;;;;;;9.67;93.68;102235.03;5012625;28;20082;-70
2021/11/20 03:22:07;;;;;;;55.58;34.70;;;;;;;9.67;93.56;102229.81;5014043;28;20285;-69
2021/11/20 03:24:34;;;;;;;61.28;35.58;;;;;;;9.64;93.77;102228.25;5013538;28;20050;-70
2021/11/20 03:27:01;;;;;;;60.30;35.67;;;;;;;9.67;93.43;102234.22;5012821;28;20050;-69
2021/11/20 03:29:29;;;;;;;59.28;34.95;;;;;;;9.66;93.91;102222.91;5012163;28;20085;-69
2021/11/20 03:31:56;;;;;;;57.97;33.63;;;;;;;9.70;93.37;102229.59;5012720;28;20057;-68
2021/11/20 03:34:25;;;;;;;60.67;35.00;;;;;;;9.70;93.61;102223.53;5012717;28;20077;-69
2021/11/20 03:39:34;;;;;;;64.22;35.30;;;;;;;9.76;93.20;102220.47;5035562;28;20041;-71
2021/11/20 03:42:01;;;;;;;62.83;36.83;;;;;;;9.73;93.23;102218.06;5042327;28;20326;-70
2021/11/20 03:44:27;;;;;;;70.35;44.95;;;;;;;9.76;92.90;102216.06;5049155;28;20045;-69
2021/11/20 03:46:57;;;;;;;62.20;36.00;;;;;;;9.73;93.06;102208.47;5044008;28;20049;-69
2021/11/20 03:49:27;;;;;;;59.70;34.72;;;;;;;9.72;92.95;102206.78;5030863;28;20111;-71
2021/11/20 03:55:21;;;;;;;57.92;34.03;;;;;;;9.85;91.70;102196.28;5023528;28;20059;-67
2021/11/20 03:58:31;;;;;;;63.10;35.13;;;;;;;9.88;91.38;102203.91;5016094;28;20050;-65
2021/11/20 04:01:07;;;;;;;58.72;33.90;;;;;;;9.86;91.69;102196.16;4976407;28;20070;-66
2021/11/20 04:03:57;;;;;;;55.83;33.40;;;;;;;9.77;91.64;102196.00;5009839;28;20053;-66
2021/11/20 04:06:25;;;;;;;50.47;31.70;;;;;;;9.76;91.73;102203.00;5007890;28;20505;-66
2021/11/20 04:08:53;;;;;;;53.70;32.55;;;;;;;9.77;91.67;102196.00;5009880;28;20127;-67
2021/11/20 04:11:24;;;;;;;52.30;33.00;;;;;;;9.76;91.76;102186.50;5009880;28;20255;-68
2021/11/20 04:13:52;;;;;;;56.58;34.10;;;;;;;9.88;91.18;102189.03;4995899;28;20138;-67
2021/11/20 04:16:26;;;;;;;52.20;32.30;;;;;;;9.85;91.07;102196.28;4989631;28;20141;-68
2021/11/20 04:19:09;;;;;;;51.88;31.95;;;;;;;9.81;90.80;102200.06;4990155;28;20086;-66
2021/11/20 04:21:37;;;;;;;53.05;32.38;;;;;;;9.76;90.72;102192.56;4989562;28;20050;-67
2021/11/20 04:24:07;;;;;;;54.17;32.22;;;;;;;9.83;90.63;102190.31;5005637;28;20457;-66
2021/11/20 04:26:36;;;;;;;50.00;30.83;;;;;;;9.83;90.53;102198.16;5009021;28;20050;-66
2021/11/20 04:29:08;;;;;;;51.45;31.95;;;;;;;9.74;90.66;102193.59;5009566;28;20093;-67
2021/11/20 04:31:37;;;;;;;52.78;32.95;;;;;;;9.71;90.92;102199.91;5009864;28;20057;-67
2021/11/20 04:34:06;;;;;;;50.03;30.42;;;;;;;9.87;90.27;102191.75;5008683;28;20407;-66
2021/11/20 04:36:34;;;;;;;45.22;29.35;;;;;;;9.77;89.94;102194.22;5008740;28;20054;-66
2021/11/20 04:41:53;;;;;;;52.47;34.65;;;;;;;9.81;89.21;102184.38;4990714;28;20054;-66
2021/11/20 04:44:21;;;;;;;45.78;28.83;;;;;;;9.77;89.93;102194.22;5009350;28;20089;-67
2021/11/20 04:46:54;;;;;;;45.35;28.98;;;;;;;9.72;90.08;102190.28;5008791;28;20485;-67
2021/11/20 04:49:22;;;;;;;45.35;28.08;;;;;;;9.77;89.91;102183.75;5009363;28;20058;-66
2021/11/20 04:51:51;;;;;;;48.63;28.92;;;;;;;9.78;89.43;102188.03;5009410;28;20053;-66
2021/11/20 04:54:55;;;;;;;43.42;27.98;;;;;;;9.82;89.19;102191.28;5009194;28;20085;-68
2021/11/20 05:01:36;;;;;;;48.03;28.67;;;;;;;9.76;89.15;102181.25;4906545;29;20143;-68
2021/11/20 05:04:03;;;;;;;44.72;26.67;;;;;;;9.73;89.31;102184.94;4910500;29;20202;-67
2021/11/20 05:06:36;;;;;;;43.00;28.10;;;;;;;9.80;89.21;102178.31;5003821;28;20481;-67
2021/11/20 05:09:04;;;;;;;41.03;26.95;;;;;;;9.75;89.01;102175.19;5008622;28;20058;-67
2021/11/20 05:11:52;;;;;;;42.72;26.70;;;;;;;9.77;88.83;102167.25;5009306;28;20126;-68
2021/11/20 05:14:25;;;;;;;39.22;26.25;;;;;;;9.66;89.35;102168.03;4991804;28;20057;-68
2021/11/20 05:16:57;;;;;;;41.13;27.27;;;;;;;9.68;89.61;102173.13;4988775;28;20054;-67
2021/11/20 05:19:25;;;;;;;44.88;28.90;;;;;;;9.62;89.00;102175.25;4988631;28;20402;-67
2021/11/20 05:21:52;;;;;;;47.88;28.27;;;;;;;9.63;89.10;102171.69;4989648;28;20060;-67
2021/11/20 05:24:22;;;;;;;39.85;25.83;;;;;;;9.62;89.28;102170.03;5008430;28;20077;-67
2021/11/20 05:26:51;;;;;;;42.70;26.92;;;;;;;9.60;89.41;102171.91;5012382;28;20509;-67
2021/11/20 05:29:27;;;;;;;40.90;25.63;;;;;;;9.61;89.63;102160.53;5011970;28;20093;-67
2021/11/20 05:31:57;;;;;;;41.47;26.35;;;;;;;9.60;89.94;102165.84;5012888;28;20058;-67
2021/11/20 05:34:25;;;;;;;38.90;26.52;;;;;;;9.61;89.81;102165.75;5012354;28;20533;-67
2021/11/20 05:36:52;;;;;;;39.58;26.05;;;;;;;9.60;89.67;102165.84;5012196;28;20160;-67
2021/11/20 05:39:21;;;;;;;40.67;26.55;;;;;;;9.62;89.16;102164.81;5012247;28;20197;-67
2021/11/20 05:41:51;;;;;;;38.55;25.35;;;;;;;9.64;89.03;102156.84;5013247;28;20418;-67
2021/11/20 05:44:18;;;;;;;40.63;26.67;;;;;;;9.62;89.32;102156.13;5013093;28;20137;-66
2021/11/20 05:46:45;;;;;;;40.20;26.17;;;;;;;9.59;89.51;102145.91;5012213;28;20057;-67
2021/11/20 05:49:15;;;;;;;41.13;25.23;;;;;;;9.68;88.79;102153.06;5011381;28;20125;-67
2021/11/20 06:01:38;;;;;;;39.67;24.77;;;;;;;9.55;89.43;102142.66;4905999;23;20060;-67
2021/11/20 06:04:08;;;;;;;36.53;24.67;;;;;;;9.55;89.72;102136.63;5025233;28;20080;-67
2021/11/20 06:06:59;;;;;;;44.22;26.65;;;;;;;9.54;89.51;102133.16;5007992;28;20141;-67
2021/11/20 06:09:27;;;;;;;38.15;24.95;;;;;;;9.62;89.07;102136.06;4991384;28;20056;-67
2021/11/20 06:11:55;;;;;;;39.03;25.13;;;;;;;9.57;89.07;102135.56;4992788;28;20355;-67
2021/11/20 06:14:24;;;;;;;38.13;24.50;;;;;;;9.59;89.02;102138.06;4992600;28;20062;-67
2021/11/20 06:16:51;;;;;;;39.88;24.88;;;;;;;9.62;88.68;102133.44;5016202;23;20054;-70
2021/11/20 06:19:27;;;;;;;41.58;24.35;;;;;;;9.61;88.67;102137.00;5011669;28;20041;-72
2021/11/20 06:21:55;;;;;;;36.92;24.95;;;;;;;9.60;88.53;102132.72;5012936;28;20054;-70
2021/11/20 06:24:23;;;;;;;36.88;24.92;;;;;;;9.59;88.86;102128.44;5012393;28;20092;-71
2021/11/20 06:26:50;;;;;;;37.55;24.90;;;;;;;9.61;88.85;102126.53;5011853;28;20050;-70
2021/11/20 06:29:17;;;;;;;36.00;24.25;;;;;;;9.58;88.71;102116.31;5011369;28;20045;-71
2021/11/20 06:31:47;;;;;;;40.25;24.75;;;;;;;9.57;88.72;102125.09;5012641;28;20108;-71
2021/11/20 06:34:14;;;;;;;36.75;24.95;;;;;;;9.63;88.18;102123.81;5012147;28;20402;-70
2021/11/20 06:36:46;;;;;;;42.95;26.52;;;;;;;9.66;88.15;102128.81;5009583;28;20057;-69
2021/11/20 06:51:19;;;;;;;;;;;;;;;;;;;;;
2021/11/20 06:58:20;;;;;;;37.30;24.48;;;;;;;9.36;88.91;102126.69;5013512;23;20067;-79
2021/11/20 07:04:47;;;;;;;34.05;23.73;;;;;;;9.43;89.37;102134.91;4973113;28;20059;-79
2021/11/20 07:08:05;;;;;;;37.78;24.52;;;;;;;9.33;89.84;102116.47;4959343;28;20099;-79
2021/11/20 07:10:34;;;;;;;36.28;24.42;;;;;;;9.44;89.13;102132.19;4972333;23;20133;-66
2021/11/20 07:13:02;;;;;;;37.20;24.27;;;;;;;9.44;89.51;102132.19;5019936;28;20129;-66
2021/11/20 07:15:37;;;;;;;36.75;24.77;;;;;;;9.45;89.64;102130.41;5011930;28;20061;-64
2021/11/20 07:18:06;;;;;;;38.00;24.02;;;;;;;9.46;89.47;102137.28;4994642;28;20170;-65
2021/11/20 07:20:53;;;;;;;34.38;24.40;;;;;;;9.50;89.09;102123.88;4991500;28;20049;-64
2021/11/20 07:30:57;;;;;;;35.22;23.63;;;;;;;9.60;87.94;102135.34;5009287;28;20065;-64
2021/11/20 07:34:28;;;;;;;36.20;23.00;;;;;;;9.53;88.19;102128.88;5002956;28;20050;-64
2021/11/20 07:36:57;;;;;;;35.60;23.98;;;;;;;9.56;87.64;102133.88;4990888;28;20422;-66
2021/11/20 07:39:33;;;;;;;35.92;23.55;;;;;;;9.67;87.67;102137.50;4991085;28;20191;-64
2021/11/20 07:42:00;;;;;;;33.47;23.40;;;;;;;9.68;87.35;102136.56;4989737;28;20050;-65
2021/11/20 07:44:28;;;;;;;36.38;24.00;;;;;;;9.61;87.90;102137.00;4998765;28;20416;-66
2021/11/20 07:46:55;;;;;;;35.05;23.05;;;;;;;9.60;87.30;102124.03;4998473;28;20062;-66
2021/11/20 07:49:23;;;;;;;36.55;23.90;;;;;;;9.61;87.47;102126.53;4990681;28;20101;-65
2021/11/20 07:51:50;;;;;;;34.67;23.42;;;;;;;9.73;86.90;102114.34;4991604;28;20081;-65
2021/11/20 07:54:19;;;;;;;32.00;22.83;;;;;;;9.73;86.70;102122.19;5005516;28;20104;-65
2021/11/20 07:56:53;;;;;;;34.92;23.55;;;;;;;9.81;85.99;102111.16;5010062;28;20096;-64
2021/11/20 07:59:20;;;;;;;32.97;22.95;;;;;;;9.86;85.31;102109.03;5010011;28;20108;-64
2021/11/20 08:01:47;;;;;;;35.67;23.33;;;;;;;9.80;85.47;102110.34;5011280;28;20050;-65
2021/11/20 08:04:15;;;;;;;36.83;23.67;;;;;;;9.84;85.83;102109.16;5011163;28;20054;-65
2021/11/20 08:10:10;;;;;;;37.83;23.48;;;;;;;9.84;85.55;102103.09;5009051;28;20335;-66
2021/11/20 08:12:40;;;;;;;38.40;23.58;;;;;;;9.92;85.61;102109.38;5010540;28;20431;-66
2021/11/20 08:15:08;;;;;;;34.60;22.27;;;;;;;9.90;85.43;102105.25;4992057;28;20085;-67
2021/11/20 08:17:45;;;;;;;37.20;23.67;;;;;;;9.82;85.62;102102.38;4990198;28;20086;-65
2021/11/20 08:20:15;;;;;;;35.40;24.25;;;;;;;9.81;85.94;102101.53;4990848;28;20070;-66
2021/11/20 08:22:57;;;;;;;38.80;27.45;;;;;;;9.82;85.84;102100.59;4992697;28;20061;-65
2021/11/20 08:25:37;;;;;;;38.67;25.02;;;;;;;9.94;85.02;102101.44;5011074;28;20056;-65
2021/11/20 08:28:30;;;;;;;33.42;22.60;;;;;;;9.87;85.73;102097.66;5009706;28;20505;-65
2021/11/20 08:31:00;;;;;;;36.88;23.60;;;;;;;9.90;85.65;102095.63;5011200;28;20132;-66
2021/11/20 08:33:57;;;;;;;36.38;22.73;;;;;;;9.96;85.80;102096.91;5010662;28;20088;-66
2021/11/20 08:37:02;;;;;;;34.47;23.95;;;;;;;9.95;85.47;102075.16;5011405;28;20057;-66
2021/11/20 08:39:43;;;;;;;39.05;25.65;;;;;;;9.99;84.80;102081.84;5011467;28;20103;-66
2021/11/20 08:42:16;;;;;;;36.08;23.55;;;;;;;9.97;85.05;102067.22;5011781;28;20046;-66
2021/11/20 08:44:45;;;;;;;34.92;24.38;;;;;;;10.09;84.08;102074.13;5011888;28;20119;-66
2021/11/20 08:48:03;;;;;;;34.45;23.05;;;;;;;10.09;84.71;102062.81;5011857;28;20049;-66
2021/11/20 08:50:35;;;;;;;36.38;22.90;;;;;;;10.08;84.72;102075.06;4993565;28;20047;-65
2021/11/20 08:53:04;;;;;;;36.05;22.63;;;;;;;10.20;84.45;102065.50;4994840;28;20055;-66
2021/11/20 08:55:32;;;;;;;35.33;22.75;;;;;;;10.07;84.59;102069.97;5012489;28;20085;-65
2021/11/20 08:58:02;;;;;;;36.10;22.88;;;;;;;10.06;84.37;102068.28;5012044;28;20094;-66
2021/11/20 09:00:32;;;;;;;36.30;23.00;;;;;;;10.19;84.46;102072.50;5009625;28;20058;-64
2021/11/20 09:03:02;;;;;;;35.25;23.45;;;;;;;10.12;83.75;102058.19;5015697;28;20100;-65
2021/11/20 09:05:38;;;;;;;32.05;22.65;;;;;;;10.15;83.88;102067.59;5006850;28;20085;-67
2021/11/20 09:08:11;;;;;;;33.28;22.25;;;;;;;10.20;83.70;102066.31;5002763;28;20046;-67
2021/11/20 09:10:42;;;;;;;33.45;21.83;;;;;;;10.24;84.00;102067.75;5011675;28;20054;-65
2021/11/20 09:13:14;;;;;;;36.85;25.55;;;;;;;10.21;84.35;102062.75;4998545;28;20046;-67
2021/11/20 09:15:44;;;;;;;34.20;22.60;;;;;;;10.28;83.37;102063.94;4995495;28;20050;-71
2021/11/20 09:18:12;;;;;;;39.33;25.02;;;;;;;10.32;83.15;102066.31;5002036;28;20056;-65
2021/11/20 09:20:40;;;;;;;34.75;24.20;;;;;;;10.30;83.24;102066.44;5009466;28;20057;-66
2021/11/20 09:23:07;;;;;;;34.53;23.15;;;;;;;10.34;83.48;102059.19;5006788;28;20046;-67
2021/11/20 09:25:36;;;;;;;33.60;21.88;;;;;;;10.34;83.35;102048.72;5005693;28;20057;-66
2021/11/20 09:28:08;;;;;;;29.73;20.35;;;;;;;10.42;82.23;102048.94;5013929;28;20137;-66
2021/11/20 09:31:07;;;;;;;28.95;21.67;;;;;;;10.45;82.76;102059.16;5014296;28;20572;-65
2021/11/20 09:33:35;;;;;;;31.00;21.52;;;;;;;10.63;81.34;102052.47;5014108;28;20449;-66
2021/11/20 09:36:03;;;;;;;26.27;19.20;;;;;;;10.61;82.04;102057.00;5013757;28;20046;-66
2021/11/20 09:38:30;;;;;;;24.75;18.05;;;;;;;10.54;81.59;102047.97;5013714;28;20058;-66
2021/11/20 09:40:59;;;;;;;25.75;18.63;;;;;;;10.58;82.12;102038.94;5013721;28;20478;-65
2021/11/20 09:43:29;;;;;;;25.75;17.95;;;;;;;10.61;80.75;102047.38;5012943;28;20050;-65
2021/11/20 09:46:06;;;;;;;25.55;16.95;;;;;;;10.59;80.07;102045.81;5015952;28;20050;-66
2021/11/20 09:48:41;;;;;;;27.50;18.15;;;;;;;10.60;80.82;102039.63;5014379;28;20112;-66
2021/11/20 09:51:18;;;;;;;24.83;18.15;;;;;;;10.61;81.23;102038.69;5013728;28;20046;-67
2021/11/20 09:53:45;;;;;;;25.10;17.65;;;;;;;10.60;80.41;102037.03;4994711;28;20055;-65
2021/11/20 09:56:15;;;;;;;23.27;16.98;;;;;;;10.58;80.89;102047.63;4994379;28;20051;-67
2021/11/20 09:58:45;;;;;;;23.33;17.10;;;;;;;10.57;79.95;102045.13;4994028;28;20058;-66
2021/11/20 10:01:25;;;;;;;21.10;15.55;;;;;;;10.60;80.11;102045.72;4994307;28;20120;-67
2021/11/20 10:04:07;;;;;;;21.58;15.45;;;;;;;10.63;78.74;102042.00;5012116;28;20136;-67
2021/11/20 10:06:37;;;;;;;23.20;16.83;;;;;;;10.61;78.71;102047.38;5013701;28;20460;-67
2021/11/20 10:09:22;;;;;;;25.25;16.65;;;;;;;10.63;80.07;102036.78;5014039;28;20077;-68
2021/11/20 10:11:55;;;;;;;22.67;16.95;;;;;;;10.65;80.14;102037.50;5010844;28;20459;-67
2021/11/20 10:14:39;;;;;;;21.08;16.50;;;;;;;10.71;80.48;102038.78;4993247;28;20058;-67
2021/11/20 10:17:28;;;;;;;26.55;16.88;;;;;;;10.74;79.61;102025.47;4993286;28;20137;-67
2021/11/20 10:20:00;;;;;;;19.95;15.88;;;;;;;10.65;79.16;102019.16;4993385;28;20100;-67
2021/11/20 10:22:33;;;;;;;20.33;15.85;;;;;;;10.66;78.87;102020.00;4999451;28;20346;-65
2021/11/20 10:25:26;;;;;;;19.92;15.70;;;;;;;10.76;78.49;102015.69;5013304;28;20502;-67
2021/11/20 10:28:10;;;;;;;19.17;15.95;;;;;;;10.73;77.77;102015.94;5012977;28;20060;-67
2021/11/20 10:30:48;;;;;;;19.70;16.13;;;;;;;10.78;77.49;102016.41;5013249;28;20065;-66
2021/11/20 10:33:21;;;;;;;18.35;15.77;;;;;;;10.68;78.12;102010.25;5013809;28;20075;-64
2021/11/20 10:35:49;;;;;;;;;;;;;;;10.66;78.34;101999.88;5014142;28;20060;-66
2021/11/20 10:38:25;;;;;;;21.30;16.58;;;;;;;10.70;78.86;102001.31;5013281;28;19928;-67
2021/11/20 10:41:01;;;;;;;21.77;17.20;;;;;;;10.83;78.12;102001.16;5013730;28;20421;-67
2021/11/20 10:43:33;;;;;;;22.90;16.95;;;;;;;10.75;77.92;101988.69;5013507;28;20051;-65
2021/11/20 10:46:20;;;;;;;21.40;17.55;;;;;;;10.74;77.78;101986.19;5013671;28;20100;-67
2021/11/20 10:49:03;;;;;;;21.50;16.83;;;;;;;10.72;77.81;101975.84;5013223;28;20132;-66
2021/11/20 10:51:42;;;;;;;19.02;16.52;;;;;;;10.76;77.64;101977.25;5014178;28;20050;-68
2021/11/20 10:55:19;;;;;;;21.20;17.02;;;;;;;10.69;77.33;101973.47;5015571;28;20050;-67
2021/11/20 10:58:14;;;;;;;21.05;16.10;;;;;;;10.71;77.04;101973.34;5003023;28;20050;-68
2021/11/20 11:01:07;;;;;;;19.58;15.02;;;;;;;10.74;76.97;101975.72;5013574;28;20053;-67
2021/11/20 11:03:40;;;;;;;19.52;15.30;;;;;;;10.72;77.32;101969.78;5013636;28;20054;-67
2021/11/20 11:06:48;;;;;;;19.30;15.82;;;;;;;10.64;77.67;101960.75;5013347;28;20104;-65
2021/11/20 11:09:40;;;;;;;20.65;16.50;;;;;;;10.66;77.68;101960.63;5006007;28;20050;-66
2021/11/20 11:12:27;;;;;;;29.95;17.42;;;;;;;10.68;77.78;101956.09;4998797;28;20072;-67
2021/11/20 11:15:29;;;;;;;21.02;17.42;;;;;;;10.75;77.12;101954.66;5013365;28;20073;-66
2021/11/20 11:18:25;;;;;;;23.38;17.35;;;;;;;10.66;76.52;101937.06;5012591;28;20113;-66
2021/11/20 11:21:27;;;;;;;21.88;17.20;;;;;;;10.63;77.00;101938.13;5012620;28;20081;-66
2021/11/20 11:24:32;;;;;;;21.63;17.15;;;;;;;10.63;77.09;101929.44;5012756;28;20062;-66
2021/11/20 11:27:08;;;;;;;24.27;18.63;;;;;;;10.66;76.78;101929.22;4966117;28;20183;-65
2021/11/20 11:30:09;;;;;;;23.30;18.15;;;;;;;10.65;76.22;101927.53;5012235;28;20077;-65
2021/11/20 11:32:39;;;;;;;24.40;18.00;;;;;;;10.69;77.24;101915.88;4994955;28;20073;-66
2021/11/20 11:39:09;;;;;;;24.67;17.55;;;;;;;10.72;77.30;101905.16;4976521;28;20147;-67
2021/11/20 11:41:57;;;;;;;29.45;18.98;;;;;;;10.81;77.44;101903.56;5012142;28;20050;-67
2021/11/20 11:44:36;;;;;;;30.05;18.95;;;;;;;10.79;78.07;101901.06;5012209;28;20049;-65
2021/11/20 11:47:19;;;;;;;30.15;19.77;;;;;;;10.79;78.47;101893.22;5012403;28;20066;-65
2021/11/20 11:50:20;;;;;;;28.30;19.17;;;;;;;10.75;78.40;101888.34;5012014;28;20060;-66
2021/11/20 11:52:56;;;;;;;29.50;19.38;;;;;;;10.88;77.79;101895.06;5012615;28;20103;-65
2021/11/20 11:55:53;;;;;;;29.40;19.98;;;;;;;10.91;77.86;101884.31;5012167;28;20052;-65
2021/11/20 11:58:54;;;;;;;27.33;18.75;;;;;;;10.74;78.24;101882.28;5011649;28;20081;-67
2021/11/20 12:01:38;;;;;;;28.77;18.30;;;;;;;10.69;78.34;101870.53;5011898;28;20222;-65
2021/11/20 12:04:17;;;;;;;29.67;18.33;;;;;;;10.53;78.69;101868.34;5012213;28;20046;-65
2021/11/20 12:07:16;;;;;;;27.77;19.08;;;;;;;10.65;78.36;101859.50;5011634;28;20074;-65
2021/11/20 12:09:49;;;;;;;28.52;19.25;;;;;;;10.60;78.41;101861.66;4964628;28;20202;-67
2021/11/20 12:12:30;;;;;;;27.67;19.40;;;;;;;10.64;78.37;101860.44;5011776;28;20452;-66
2021/11/20 12:15:10;;;;;;;27.80;18.98;;;;;;;10.65;78.21;101851.63;5012479;28;20086;-65
2021/11/20 12:17:57;;;;;;;29.35;18.63;;;;;;;10.60;78.37;101838.91;5012609;28;20115;-66
2021/11/20 12:20:36;;;;;;;28.38;19.40;;;;;;;10.63;77.89;101837.84;5012033;28;20088;-65
2021/11/20 12:23:14;;;;;;;28.02;18.98;;;;;;;10.45;78.38;101836.72;5011829;28;20053;-65
2021/11/20 12:25:49;;;;;;;29.38;19.10;;;;;;;10.50;77.91;101831.94;5011881;28;20200;-67
2021/11/20 12:28:37;;;;;;;27.13;18.95;;;;;;;10.53;78.55;101831.69;5011420;28;20125;-67
2021/11/20 12:31:39;;;;;;;28.98;18.23;;;;;;;10.61;78.04;101819.66;5011917;28;20481;-66
2021/11/20 12:34:28;;;;;;;26.02;17.55;;;;;;;11.07;82.55;101809.72;4978604;28;20116;-65
2021/11/20 12:37:10;;;;;;;26.33;17.63;;;;;;;11.01;76.59;101810.22;5011269;28;20068;-65
2021/11/20 12:39:51;;;;;;;27.27;19.27;;;;;;;10.72;76.79;101794.38;5011421;28;20057;-65
2021/11/20 12:42:36;;;;;;;27.25;18.67;;;;;;;10.71;77.56;101804.00;5011499;28;20104;-66
2021/11/20 12:45:17;;;;;;;25.90;17.80;;;;;;;10.79;76.95;101788.50;5011578;28;20136;-66
2021/11/20 12:48:15;;;;;;;28.20;19.23;;;;;;;10.64;77.40;101782.75;5011295;28;20494;-66
2021/11/20 12:50:58;;;;;;;28.48;18.58;;;;;;;10.62;77.27;101776.81;4974436;28;20154;-65
2021/11/20 12:53:34;;;;;;;30.08;18.83;;;;;;;10.58;77.95;101766.72;5008985;28;20509;-67
2021/11/20 12:56:11;;;;;;;27.30;18.25;;;;;;;10.61;77.96;101761.22;5011638;28;20085;-66
2021/11/20 12:58:41;;;;;;;27.63;18.58;;;;;;;10.63;78.00;101748.84;5011234;28;20068;-67
2021/11/20 13:01:12;;;;;;;26.40;17.95;;;;;;;10.63;77.72;101748.84;5011586;28;20045;-66